sensor_id;sensor_type;location;lat;lon;timestamp;P1;durP1;ratioP1;P2;durP2;ratioP2
673;SDS011;319;48.764;9.174;2022-09-09T00:02:24;5.50;;;5.40;;
673;SDS011;319;48.764;9.174;2022-09-09T00:04:57;5.20;;;5.10;;
673;SDS011;319;48.764;9.174;2022-09-09T00:07:32;5.00;;;4.90;;
673;SDS011;319;48.764;9.174;2022-09-09T00:10:09;3.83;;;3.73;;
673;SDS011;319;48.764;9.174;2022-09-09T00:12:47;4.20;;;4.10;;
673;SDS011;319;48.764;9.174;2022-09-09T00:15:22;2.60;;;2.60;;
673;SDS011;319;48.764;9.174;2022-09-09T00:17:53;2.93;;;2.83;;
673;SDS011;319;48.764;9.174;2022-09-09T00:20:27;3.27;;;3.17;;
673;SDS011;319;48.764;9.174;2022-09-09T00:22:59;2.80;;;2.70;;
673;SDS011;319;48.764;9.174;2022-09-09T00:25:36;3.00;;;2.90;;
673;SDS011;319;48.764;9.174;2022-09-09T00:28:11;1.93;;;1.93;;
673;SDS011;319;48.764;9.174;2022-09-09T00:30:43;1.07;;;1.07;;
673;SDS011;319;48.764;9.174;2022-09-09T00:33:13;0.90;;;0.90;;
673;SDS011;319;48.764;9.174;2022-09-09T00:35:44;3.20;;;3.10;;
673;SDS011;319;48.764;9.174;2022-09-09T00:38:14;5.00;;;4.90;;
673;SDS011;319;48.764;9.174;2022-09-09T00:40:48;5.30;;;5.20;;
673;SDS011;319;48.764;9.174;2022-09-09T00:43:25;5.20;;;5.10;;
673;SDS011;319;48.764;9.174;2022-09-09T00:48:51;5.30;;;5.20;;
673;SDS011;319;48.764;9.174;2022-09-09T00:51:27;5.40;;;5.30;;
673;SDS011;319;48.764;9.174;2022-09-09T00:54:19;2.50;;;2.50;;
673;SDS011;319;48.764;9.174;2022-09-09T00:56:57;3.60;;;3.50;;
673;SDS011;319;48.764;9.174;2022-09-09T00:59:35;2.90;;;2.80;;
673;SDS011;319;48.764;9.174;2022-09-09T01:02:13;3.30;;;3.20;;
673;SDS011;319;48.764;9.174;2022-09-09T01:04:48;2.93;;;2.83;;
673;SDS011;319;48.764;9.174;2022-09-09T01:07:16;5.50;;;5.40;;
673;SDS011;319;48.764;9.174;2022-09-09T01:09:54;5.07;;;4.97;;
673;SDS011;319;48.764;9.174;2022-09-09T01:12:33;5.03;;;4.93;;
673;SDS011;319;48.764;9.174;2022-09-09T01:15:08;5.20;;;5.10;;
673;SDS011;319;48.764;9.174;2022-09-09T01:17:42;5.30;;;5.20;;
673;SDS011;319;48.764;9.174;2022-09-09T01:20:19;5.70;;;5.60;;
673;SDS011;319;48.764;9.174;2022-09-09T01:22:55;5.27;;;5.17;;
673;SDS011;319;48.764;9.174;2022-09-09T01:26:02;4.00;;;3.90;;
673;SDS011;319;48.764;9.174;2022-09-09T01:28:37;3.30;;;3.20;;
673;SDS011;319;48.764;9.174;2022-09-09T01:31:06;3.40;;;3.30;;
673;SDS011;319;48.764;9.174;2022-09-09T01:33:37;4.70;;;4.60;;
673;SDS011;319;48.764;9.174;2022-09-09T01:36:04;4.60;;;4.50;;
673;SDS011;319;48.764;9.174;2022-09-09T01:38:35;4.87;;;4.77;;
673;SDS011;319;48.764;9.174;2022-09-09T01:41:04;5.40;;;5.30;;
673;SDS011;319;48.764;9.174;2022-09-09T01:43:31;4.80;;;4.70;;
673;SDS011;319;48.764;9.174;2022-09-09T01:45:59;5.10;;;5.00;;
673;SDS011;319;48.764;9.174;2022-09-09T01:48:27;5.00;;;4.90;;
673;SDS011;319;48.764;9.174;2022-09-09T01:50:56;5.40;;;5.30;;
673;SDS011;319;48.764;9.174;2022-09-09T01:53:23;5.10;;;5.00;;
673;SDS011;319;48.764;9.174;2022-09-09T01:55:53;5.80;;;5.70;;
673;SDS011;319;48.764;9.174;2022-09-09T01:58:34;5.80;;;5.70;;
673;SDS011;319;48.764;9.174;2022-09-09T02:01:13;5.50;;;5.40;;
673;SDS011;319;48.764;9.174;2022-09-09T02:03:51;5.20;;;5.10;;
673;SDS011;319;48.764;9.174;2022-09-09T02:06:23;5.00;;;4.90;;
673;SDS011;319;48.764;9.174;2022-09-09T02:08:55;5.37;;;5.27;;
673;SDS011;319;48.764;9.174;2022-09-09T02:11:25;4.90;;;4.80;;
673;SDS011;319;48.764;9.174;2022-09-09T02:13:56;5.10;;;5.00;;
673;SDS011;319;48.764;9.174;2022-09-09T02:16:27;5.40;;;5.30;;
673;SDS011;319;48.764;9.174;2022-09-09T02:19:00;5.20;;;5.10;;
673;SDS011;319;48.764;9.174;2022-09-09T02:21:30;4.90;;;4.80;;
673;SDS011;319;48.764;9.174;2022-09-09T02:23:59;3.83;;;3.73;;
673;SDS011;319;48.764;9.174;2022-09-09T02:26:31;3.20;;;3.10;;
673;SDS011;319;48.764;9.174;2022-09-09T02:29:02;4.93;;;4.83;;
673;SDS011;319;48.764;9.174;2022-09-09T02:31:34;3.07;;;2.97;;
673;SDS011;319;48.764;9.174;2022-09-09T02:34:02;2.10;;;2.10;;
673;SDS011;319;48.764;9.174;2022-09-09T02:36:31;0.80;;;0.80;;
673;SDS011;319;48.764;9.174;2022-09-09T02:39:00;1.97;;;1.97;;
673;SDS011;319;48.764;9.174;2022-09-09T02:41:30;1.00;;;1.00;;
673;SDS011;319;48.764;9.174;2022-09-09T02:43:59;1.00;;;1.00;;
673;SDS011;319;48.764;9.174;2022-09-09T02:46:38;3.80;;;3.70;;
673;SDS011;319;48.764;9.174;2022-09-09T02:49:25;0.93;;;0.93;;
673;SDS011;319;48.764;9.174;2022-09-09T02:52:00;0.80;;;0.80;;
673;SDS011;319;48.764;9.174;2022-09-09T02:54:31;0.90;;;0.90;;
673;SDS011;319;48.764;9.174;2022-09-09T02:57:01;0.90;;;0.90;;
673;SDS011;319;48.764;9.174;2022-09-09T02:59:32;0.90;;;0.90;;
673;SDS011;319;48.764;9.174;2022-09-09T03:02:01;0.90;;;0.90;;
673;SDS011;319;48.764;9.174;2022-09-09T03:04:28;1.10;;;1.10;;
673;SDS011;319;48.764;9.174;2022-09-09T03:06:56;4.13;;;4.03;;
673;SDS011;319;48.764;9.174;2022-09-09T03:09:23;5.80;;;5.70;;
673;SDS011;319;48.764;9.174;2022-09-09T03:11:51;5.63;;;5.53;;
673;SDS011;319;48.764;9.174;2022-09-09T03:14:20;5.47;;;5.37;;
673;SDS011;319;48.764;9.174;2022-09-09T03:16:49;5.73;;;5.63;;
673;SDS011;319;48.764;9.174;2022-09-09T03:19:18;5.80;;;5.70;;
673;SDS011;319;48.764;9.174;2022-09-09T03:21:45;5.57;;;5.47;;
673;SDS011;319;48.764;9.174;2022-09-09T03:24:12;5.60;;;5.50;;
673;SDS011;319;48.764;9.174;2022-09-09T03:26:39;4.70;;;4.60;;
673;SDS011;319;48.764;9.174;2022-09-09T03:29:09;5.63;;;5.53;;
673;SDS011;319;48.764;9.174;2022-09-09T03:31:37;4.97;;;4.87;;
673;SDS011;319;48.764;9.174;2022-09-09T03:34:04;5.80;;;5.70;;
673;SDS011;319;48.764;9.174;2022-09-09T03:36:32;5.43;;;5.33;;
673;SDS011;319;48.764;9.174;2022-09-09T03:38:59;4.50;;;4.40;;
673;SDS011;319;48.764;9.174;2022-09-09T03:41:28;4.47;;;4.37;;
673;SDS011;319;48.764;9.174;2022-09-09T03:43:55;3.50;;;3.40;;
673;SDS011;319;48.764;9.174;2022-09-09T03:46:24;2.70;;;2.60;;
673;SDS011;319;48.764;9.174;2022-09-09T03:48:51;2.90;;;2.80;;
673;SDS011;319;48.764;9.174;2022-09-09T03:51:18;2.50;;;2.50;;
673;SDS011;319;48.764;9.174;2022-09-09T03:53:48;2.80;;;2.70;;
673;SDS011;319;48.764;9.174;2022-09-09T03:56:15;2.60;;;2.60;;
673;SDS011;319;48.764;9.174;2022-09-09T03:58:42;2.87;;;2.77;;
673;SDS011;319;48.764;9.174;2022-09-09T04:01:09;2.63;;;2.63;;
673;SDS011;319;48.764;9.174;2022-09-09T04:03:38;2.80;;;2.70;;
673;SDS011;319;48.764;9.174;2022-09-09T04:06:07;2.30;;;2.30;;
673;SDS011;319;48.764;9.174;2022-09-09T04:08:36;2.90;;;2.80;;
673;SDS011;319;48.764;9.174;2022-09-09T04:11:05;2.30;;;2.30;;
673;SDS011;319;48.764;9.174;2022-09-09T04:13:33;2.43;;;2.43;;
673;SDS011;319;48.764;9.174;2022-09-09T04:16:00;2.20;;;2.20;;
673;SDS011;319;48.764;9.174;2022-09-09T04:18:28;1.00;;;1.00;;
673;SDS011;319;48.764;9.174;2022-09-09T04:20:56;3.37;;;3.27;;
673;SDS011;319;48.764;9.174;2022-09-09T04:23:23;2.57;;;2.57;;
673;SDS011;319;48.764;9.174;2022-09-09T04:25:54;3.73;;;3.63;;
673;SDS011;319;48.764;9.174;2022-09-09T04:28:24;1.13;;;1.13;;
673;SDS011;319;48.764;9.174;2022-09-09T04:30:52;2.90;;;2.80;;
673;SDS011;319;48.764;9.174;2022-09-09T04:33:19;2.50;;;2.50;;
673;SDS011;319;48.764;9.174;2022-09-09T04:35:48;2.90;;;2.80;;
673;SDS011;319;48.764;9.174;2022-09-09T04:38:19;7.53;;;7.33;;
673;SDS011;319;48.764;9.174;2022-09-09T04:40:48;2.73;;;2.70;;
673;SDS011;319;48.764;9.174;2022-09-09T04:43:16;2.63;;;2.63;;
673;SDS011;319;48.764;9.174;2022-09-09T04:45:46;2.60;;;2.60;;
673;SDS011;319;48.764;9.174;2022-09-09T04:48:14;2.40;;;2.40;;
673;SDS011;319;48.764;9.174;2022-09-09T04:50:41;3.80;;;3.70;;
673;SDS011;319;48.764;9.174;2022-09-09T04:53:08;4.10;;;4.00;;
673;SDS011;319;48.764;9.174;2022-09-09T04:55:36;4.07;;;3.97;;
673;SDS011;319;48.764;9.174;2022-09-09T04:58:03;4.97;;;4.87;;
673;SDS011;319;48.764;9.174;2022-09-09T05:00:31;6.40;;;6.30;;
673;SDS011;319;48.764;9.174;2022-09-09T05:03:01;3.60;;;3.50;;
673;SDS011;319;48.764;9.174;2022-09-09T05:05:29;4.47;;;4.37;;
673;SDS011;319;48.764;9.174;2022-09-09T05:08:00;1.40;;;1.40;;
673;SDS011;319;48.764;9.174;2022-09-09T05:10:27;1.67;;;1.67;;
673;SDS011;319;48.764;9.174;2022-09-09T05:12:55;1.10;;;1.10;;
673;SDS011;319;48.764;9.174;2022-09-09T05:15:22;1.30;;;1.30;;
673;SDS011;319;48.764;9.174;2022-09-09T05:17:49;1.10;;;1.10;;
673;SDS011;319;48.764;9.174;2022-09-09T05:20:18;1.00;;;1.00;;
673;SDS011;319;48.764;9.174;2022-09-09T05:22:46;1.10;;;1.10;;
673;SDS011;319;48.764;9.174;2022-09-09T05:25:14;0.90;;;0.90;;
673;SDS011;319;48.764;9.174;2022-09-09T05:27:41;0.90;;;0.90;;
673;SDS011;319;48.764;9.174;2022-09-09T05:30:08;1.10;;;1.10;;
673;SDS011;319;48.764;9.174;2022-09-09T05:32:36;1.20;;;1.20;;
673;SDS011;319;48.764;9.174;2022-09-09T05:35:03;1.10;;;1.10;;
673;SDS011;319;48.764;9.174;2022-09-09T05:37:32;1.30;;;1.30;;
673;SDS011;319;48.764;9.174;2022-09-09T05:39:58;1.20;;;1.20;;
673;SDS011;319;48.764;9.174;2022-09-09T05:42:29;1.00;;;1.00;;
673;SDS011;319;48.764;9.174;2022-09-09T05:44:56;2.00;;;2.00;;
673;SDS011;319;48.764;9.174;2022-09-09T05:47:23;2.50;;;2.50;;
673;SDS011;319;48.764;9.174;2022-09-09T05:49:52;2.10;;;2.10;;
673;SDS011;319;48.764;9.174;2022-09-09T05:52:20;1.90;;;1.90;;
673;SDS011;319;48.764;9.174;2022-09-09T05:54:49;6.70;;;6.50;;
673;SDS011;319;48.764;9.174;2022-09-09T05:57:16;8.57;;;8.37;;
673;SDS011;319;48.764;9.174;2022-09-09T05:59:44;8.13;;;7.93;;
673;SDS011;319;48.764;9.174;2022-09-09T06:02:11;5.43;;;5.33;;
673;SDS011;319;48.764;9.174;2022-09-09T06:04:38;4.30;;;4.20;;
673;SDS011;319;48.764;9.174;2022-09-09T06:07:05;4.47;;;4.37;;
673;SDS011;319;48.764;9.174;2022-09-09T06:09:32;3.67;;;3.57;;
673;SDS011;319;48.764;9.174;2022-09-09T06:12:03;4.50;;;4.40;;
673;SDS011;319;48.764;9.174;2022-09-09T06:14:31;4.13;;;4.03;;
673;SDS011;319;48.764;9.174;2022-09-09T06:16:57;3.90;;;3.80;;
673;SDS011;319;48.764;9.174;2022-09-09T06:19:27;3.33;;;3.23;;
673;SDS011;319;48.764;9.174;2022-09-09T06:21:56;3.63;;;3.53;;
673;SDS011;319;48.764;9.174;2022-09-09T06:24:23;3.63;;;3.53;;
673;SDS011;319;48.764;9.174;2022-09-09T06:26:50;4.10;;;4.00;;
673;SDS011;319;48.764;9.174;2022-09-09T06:29:18;3.70;;;3.60;;
673;SDS011;319;48.764;9.174;2022-09-09T06:31:45;3.30;;;3.20;;
673;SDS011;319;48.764;9.174;2022-09-09T06:34:12;4.10;;;4.00;;
673;SDS011;319;48.764;9.174;2022-09-09T06:36:39;3.80;;;3.70;;
673;SDS011;319;48.764;9.174;2022-09-09T06:39:06;4.30;;;4.20;;
673;SDS011;319;48.764;9.174;2022-09-09T06:41:36;1.40;;;1.40;;
673;SDS011;319;48.764;9.174;2022-09-09T06:44:04;2.50;;;2.50;;
673;SDS011;319;48.764;9.174;2022-09-09T06:46:32;4.50;;;4.40;;
673;SDS011;319;48.764;9.174;2022-09-09T06:49:00;2.90;;;2.80;;
673;SDS011;319;48.764;9.174;2022-09-09T06:51:28;3.23;;;3.13;;
673;SDS011;319;48.764;9.174;2022-09-09T06:53:56;3.40;;;3.30;;
673;SDS011;319;48.764;9.174;2022-09-09T06:56:25;1.20;;;1.20;;
673;SDS011;319;48.764;9.174;2022-09-09T06:58:54;2.20;;;2.20;;
673;SDS011;319;48.764;9.174;2022-09-09T07:01:23;0.80;;;0.80;;
673;SDS011;319;48.764;9.174;2022-09-09T07:03:53;0.90;;;0.90;;
673;SDS011;319;48.764;9.174;2022-09-09T07:06:24;3.50;;;3.40;;
673;SDS011;319;48.764;9.174;2022-09-09T07:08:52;3.00;;;2.90;;
673;SDS011;319;48.764;9.174;2022-09-09T07:11:21;3.20;;;3.10;;
673;SDS011;319;48.764;9.174;2022-09-09T07:13:49;4.20;;;4.10;;
673;SDS011;319;48.764;9.174;2022-09-09T07:16:17;3.70;;;3.60;;
673;SDS011;319;48.764;9.174;2022-09-09T07:18:45;3.33;;;3.23;;
673;SDS011;319;48.764;9.174;2022-09-09T07:21:17;4.17;;;4.07;;
673;SDS011;319;48.764;9.174;2022-09-09T07:23:45;4.53;;;4.43;;
673;SDS011;319;48.764;9.174;2022-09-09T07:26:13;7.60;;;7.40;;
673;SDS011;319;48.764;9.174;2022-09-09T07:28:41;9.00;;;8.80;;
673;SDS011;319;48.764;9.174;2022-09-09T07:31:12;10.80;;;10.50;;
673;SDS011;319;48.764;9.174;2022-09-09T07:33:42;7.70;;;7.50;;
673;SDS011;319;48.764;9.174;2022-09-09T07:36:10;8.23;;;8.03;;
673;SDS011;319;48.764;9.174;2022-09-09T07:38:41;5.50;;;5.40;;
673;SDS011;319;48.764;9.174;2022-09-09T07:41:11;7.53;;;7.33;;
673;SDS011;319;48.764;9.174;2022-09-09T07:43:39;5.80;;;5.70;;
673;SDS011;319;48.764;9.174;2022-09-09T07:46:07;0.80;;;0.80;;
673;SDS011;319;48.764;9.174;2022-09-09T07:48:35;0.90;;;0.90;;
673;SDS011;319;48.764;9.174;2022-09-09T07:51:03;2.57;;;2.50;;
673;SDS011;319;48.764;9.174;2022-09-09T07:53:34;7.73;;;7.53;;
673;SDS011;319;48.764;9.174;2022-09-09T07:56:07;10.47;;;10.17;;
673;SDS011;319;48.764;9.174;2022-09-09T07:58:35;10.50;;;10.20;;
673;SDS011;319;48.764;9.174;2022-09-09T08:01:06;12.47;;;12.17;;
673;SDS011;319;48.764;9.174;2022-09-09T08:03:34;10.20;;;9.90;;
673;SDS011;319;48.764;9.174;2022-09-09T08:06:01;11.83;;;11.53;;
673;SDS011;319;48.764;9.174;2022-09-09T08:08:29;6.20;;;6.07;;
673;SDS011;319;48.764;9.174;2022-09-09T08:11:03;0.70;;;0.70;;
673;SDS011;319;48.764;9.174;2022-09-09T08:13:34;0.70;;;0.70;;
673;SDS011;319;48.764;9.174;2022-09-09T08:16:05;0.70;;;0.70;;
673;SDS011;319;48.764;9.174;2022-09-09T08:18:33;0.70;;;0.70;;
673;SDS011;319;48.764;9.174;2022-09-09T08:21:07;0.70;;;0.70;;
673;SDS011;319;48.764;9.174;2022-09-09T08:23:36;0.70;;;0.70;;
673;SDS011;319;48.764;9.174;2022-09-09T08:26:06;0.70;;;0.70;;
673;SDS011;319;48.764;9.174;2022-09-09T08:28:36;0.70;;;0.70;;
673;SDS011;319;48.764;9.174;2022-09-09T08:31:05;1.97;;;1.97;;
673;SDS011;319;48.764;9.174;2022-09-09T08:33:33;0.90;;;0.90;;
673;SDS011;319;48.764;9.174;2022-09-09T08:36:01;1.17;;;1.17;;
673;SDS011;319;48.764;9.174;2022-09-09T08:38:29;9.80;;;9.60;;
673;SDS011;319;48.764;9.174;2022-09-09T08:40:58;11.93;;;11.63;;
673;SDS011;319;48.764;9.174;2022-09-09T08:43:33;8.03;;;7.83;;
673;SDS011;319;48.764;9.174;2022-09-09T08:46:02;9.33;;;9.13;;
673;SDS011;319;48.764;9.174;2022-09-09T08:48:42;0.90;;;0.90;;
673;SDS011;319;48.764;9.174;2022-09-09T08:51:19;13.80;;;13.40;;
673;SDS011;319;48.764;9.174;2022-09-09T08:53:47;11.80;;;11.50;;
673;SDS011;319;48.764;9.174;2022-09-09T08:56:18;12.30;;;12.00;;
673;SDS011;319;48.764;9.174;2022-09-09T08:58:50;7.30;;;7.10;;
673;SDS011;319;48.764;9.174;2022-09-09T09:01:28;13.60;;;13.20;;
673;SDS011;319;48.764;9.174;2022-09-09T09:04:07;10.00;;;9.70;;
673;SDS011;319;48.764;9.174;2022-09-09T09:06:47;0.70;;;0.70;;
673;SDS011;319;48.764;9.174;2022-09-09T09:09:22;0.80;;;0.80;;
673;SDS011;319;48.764;9.174;2022-09-09T09:11:56;0.80;;;0.80;;
673;SDS011;319;48.764;9.174;2022-09-09T09:14:28;8.70;;;8.50;;
673;SDS011;319;48.764;9.174;2022-09-09T09:17:00;11.23;;;10.93;;
673;SDS011;319;48.764;9.174;2022-09-09T09:19:29;2.53;;;2.50;;
673;SDS011;319;48.764;9.174;2022-09-09T09:22:00;4.27;;;4.17;;
673;SDS011;319;48.764;9.174;2022-09-09T09:24:39;0.80;;;0.80;;
673;SDS011;319;48.764;9.174;2022-09-09T09:27:12;0.90;;;0.90;;
673;SDS011;319;48.764;9.174;2022-09-09T09:29:42;1.20;;;1.20;;
673;SDS011;319;48.764;9.174;2022-09-09T09:32:10;0.90;;;0.90;;
673;SDS011;319;48.764;9.174;2022-09-09T09:34:41;0.90;;;0.90;;
673;SDS011;319;48.764;9.174;2022-09-09T09:37:12;0.80;;;0.80;;
673;SDS011;319;48.764;9.174;2022-09-09T09:39:44;0.93;;;0.93;;
673;SDS011;319;48.764;9.174;2022-09-09T09:42:12;0.83;;;0.83;;
673;SDS011;319;48.764;9.174;2022-09-09T09:44:43;0.90;;;0.90;;
673;SDS011;319;48.764;9.174;2022-09-09T09:47:12;0.90;;;0.90;;
673;SDS011;319;48.764;9.174;2022-09-09T09:49:50;1.00;;;1.00;;
673;SDS011;319;48.764;9.174;2022-09-09T09:52:20;0.90;;;0.90;;
673;SDS011;319;48.764;9.174;2022-09-09T09:54:49;0.90;;;0.90;;
673;SDS011;319;48.764;9.174;2022-09-09T09:57:17;0.80;;;0.80;;
673;SDS011;319;48.764;9.174;2022-09-09T09:59:59;0.90;;;0.90;;
673;SDS011;319;48.764;9.174;2022-09-09T10:02:31;0.80;;;0.80;;
673;SDS011;319;48.764;9.174;2022-09-09T10:05:05;0.90;;;0.90;;
673;SDS011;319;48.764;9.174;2022-09-09T10:07:38;0.80;;;0.80;;
673;SDS011;319;48.764;9.174;2022-09-09T10:10:05;0.90;;;0.90;;
673;SDS011;319;48.764;9.174;2022-09-09T10:12:41;0.80;;;0.80;;
673;SDS011;319;48.764;9.174;2022-09-09T10:15:20;0.80;;;0.80;;
673;SDS011;319;48.764;9.174;2022-09-09T10:17:57;0.70;;;0.70;;
673;SDS011;319;48.764;9.174;2022-09-09T10:20:32;0.80;;;0.80;;
673;SDS011;319;48.764;9.174;2022-09-09T10:23:12;0.70;;;0.70;;
673;SDS011;319;48.764;9.174;2022-09-09T10:25:58;0.70;;;0.70;;
673;SDS011;319;48.764;9.174;2022-09-09T10:28:41;0.80;;;0.80;;
673;SDS011;319;48.764;9.174;2022-09-09T10:31:22;0.80;;;0.80;;
673;SDS011;319;48.764;9.174;2022-09-09T10:34:00;0.80;;;0.80;;
673;SDS011;319;48.764;9.174;2022-09-09T10:36:32;0.90;;;0.90;;
673;SDS011;319;48.764;9.174;2022-09-09T10:39:01;0.90;;;0.90;;
673;SDS011;319;48.764;9.174;2022-09-09T10:41:37;0.80;;;0.80;;
673;SDS011;319;48.764;9.174;2022-09-09T10:44:13;0.80;;;0.80;;
673;SDS011;319;48.764;9.174;2022-09-09T10:46:58;0.80;;;0.80;;
673;SDS011;319;48.764;9.174;2022-09-09T10:50:03;0.80;;;0.80;;
673;SDS011;319;48.764;9.174;2022-09-09T10:52:50;0.80;;;0.80;;
673;SDS011;319;48.764;9.174;2022-09-09T10:55:27;0.80;;;0.80;;
673;SDS011;319;48.764;9.174;2022-09-09T10:58:02;0.70;;;0.70;;
673;SDS011;319;48.764;9.174;2022-09-09T11:00:36;0.80;;;0.80;;
673;SDS011;319;48.764;9.174;2022-09-09T11:03:13;0.70;;;0.70;;
673;SDS011;319;48.764;9.174;2022-09-09T11:05:44;0.80;;;0.80;;
673;SDS011;319;48.764;9.174;2022-09-09T11:08:17;0.80;;;0.80;;
673;SDS011;319;48.764;9.174;2022-09-09T11:10:46;0.80;;;0.80;;
673;SDS011;319;48.764;9.174;2022-09-09T11:13:26;0.80;;;0.80;;
673;SDS011;319;48.764;9.174;2022-09-09T11:16:01;0.80;;;0.80;;
673;SDS011;319;48.764;9.174;2022-09-09T11:18:42;0.80;;;0.80;;
673;SDS011;319;48.764;9.174;2022-09-09T11:21:16;0.80;;;0.80;;
673;SDS011;319;48.764;9.174;2022-09-09T11:23:49;0.93;;;0.93;;
673;SDS011;319;48.764;9.174;2022-09-09T11:26:22;0.80;;;0.80;;
673;SDS011;319;48.764;9.174;2022-09-09T11:28:59;0.90;;;0.90;;
673;SDS011;319;48.764;9.174;2022-09-09T11:31:42;0.80;;;0.80;;
673;SDS011;319;48.764;9.174;2022-09-09T11:34:17;0.80;;;0.80;;
673;SDS011;319;48.764;9.174;2022-09-09T11:37:00;0.80;;;0.80;;
673;SDS011;319;48.764;9.174;2022-09-09T11:39:56;0.90;;;0.90;;
673;SDS011;319;48.764;9.174;2022-09-09T11:42:44;0.80;;;0.80;;
673;SDS011;319;48.764;9.174;2022-09-09T11:45:19;0.80;;;0.80;;
673;SDS011;319;48.764;9.174;2022-09-09T11:47:53;0.80;;;0.80;;
673;SDS011;319;48.764;9.174;2022-09-09T11:50:30;0.80;;;0.80;;
673;SDS011;319;48.764;9.174;2022-09-09T11:53:04;0.80;;;0.80;;
673;SDS011;319;48.764;9.174;2022-09-09T11:55:42;0.80;;;0.80;;
673;SDS011;319;48.764;9.174;2022-09-09T11:58:15;0.70;;;0.70;;
673;SDS011;319;48.764;9.174;2022-09-09T12:00:44;0.80;;;0.80;;
673;SDS011;319;48.764;9.174;2022-09-09T12:06:13;0.80;;;0.80;;
673;SDS011;319;48.764;9.174;2022-09-09T12:08:45;0.70;;;0.70;;
673;SDS011;319;48.764;9.174;2022-09-09T12:11:27;0.80;;;0.80;;
673;SDS011;319;48.764;9.174;2022-09-09T12:13:56;0.80;;;0.80;;
673;SDS011;319;48.764;9.174;2022-09-09T12:16:37;0.70;;;0.70;;
673;SDS011;319;48.764;9.174;2022-09-09T12:19:07;0.80;;;0.80;;
673;SDS011;319;48.764;9.174;2022-09-09T12:21:45;0.80;;;0.80;;
673;SDS011;319;48.764;9.174;2022-09-09T12:24:20;0.70;;;0.70;;
673;SDS011;319;48.764;9.174;2022-09-09T12:26:56;0.80;;;0.80;;
673;SDS011;319;48.764;9.174;2022-09-09T12:29:27;0.70;;;0.70;;
673;SDS011;319;48.764;9.174;2022-09-09T12:32:02;0.80;;;0.80;;
673;SDS011;319;48.764;9.174;2022-09-09T12:34:35;0.70;;;0.70;;
673;SDS011;319;48.764;9.174;2022-09-09T12:39:56;0.80;;;0.80;;
673;SDS011;319;48.764;9.174;2022-09-09T12:42:24;0.70;;;0.70;;
673;SDS011;319;48.764;9.174;2022-09-09T12:44:53;0.70;;;0.70;;
673;SDS011;319;48.764;9.174;2022-09-09T12:47:21;0.80;;;0.80;;
673;SDS011;319;48.764;9.174;2022-09-09T12:49:52;0.80;;;0.80;;
673;SDS011;319;48.764;9.174;2022-09-09T12:52:24;0.80;;;0.80;;
673;SDS011;319;48.764;9.174;2022-09-09T12:54:56;0.80;;;0.80;;
673;SDS011;319;48.764;9.174;2022-09-09T12:57:25;0.80;;;0.80;;
673;SDS011;319;48.764;9.174;2022-09-09T13:00:03;0.80;;;0.80;;
673;SDS011;319;48.764;9.174;2022-09-09T13:02:44;0.80;;;0.80;;
673;SDS011;319;48.764;9.174;2022-09-09T13:05:17;0.80;;;0.80;;
673;SDS011;319;48.764;9.174;2022-09-09T13:07:47;0.80;;;0.80;;
673;SDS011;319;48.764;9.174;2022-09-09T13:10:15;0.70;;;0.70;;
673;SDS011;319;48.764;9.174;2022-09-09T13:12:49;0.80;;;0.80;;
673;SDS011;319;48.764;9.174;2022-09-09T13:15:19;0.80;;;0.80;;
673;SDS011;319;48.764;9.174;2022-09-09T13:17:52;0.80;;;0.80;;
673;SDS011;319;48.764;9.174;2022-09-09T13:20:21;0.80;;;0.80;;
673;SDS011;319;48.764;9.174;2022-09-09T13:22:51;0.77;;;0.77;;
673;SDS011;319;48.764;9.174;2022-09-09T13:25:21;0.70;;;0.70;;
673;SDS011;319;48.764;9.174;2022-09-09T13:27:52;0.80;;;0.80;;
673;SDS011;319;48.764;9.174;2022-09-09T13:30:22;0.80;;;0.80;;
673;SDS011;319;48.764;9.174;2022-09-09T13:33:01;0.80;;;0.80;;
673;SDS011;319;48.764;9.174;2022-09-09T13:35:30;0.70;;;0.70;;
673;SDS011;319;48.764;9.174;2022-09-09T13:38:00;0.80;;;0.80;;
673;SDS011;319;48.764;9.174;2022-09-09T13:40:34;0.80;;;0.80;;
673;SDS011;319;48.764;9.174;2022-09-09T13:43:01;0.80;;;0.80;;
673;SDS011;319;48.764;9.174;2022-09-09T13:45:30;0.80;;;0.80;;
673;SDS011;319;48.764;9.174;2022-09-09T13:47:59;0.80;;;0.80;;
673;SDS011;319;48.764;9.174;2022-09-09T13:50:36;0.80;;;0.80;;
673;SDS011;319;48.764;9.174;2022-09-09T13:53:04;0.80;;;0.80;;
673;SDS011;319;48.764;9.174;2022-09-09T13:55:31;0.80;;;0.80;;
673;SDS011;319;48.764;9.174;2022-09-09T13:57:58;0.80;;;0.80;;
673;SDS011;319;48.764;9.174;2022-09-09T14:00:28;0.80;;;0.80;;
673;SDS011;319;48.764;9.174;2022-09-09T14:02:57;0.70;;;0.70;;
673;SDS011;319;48.764;9.174;2022-09-09T14:05:25;0.80;;;0.80;;
673;SDS011;319;48.764;9.174;2022-09-09T14:07:52;0.80;;;0.80;;
673;SDS011;319;48.764;9.174;2022-09-09T14:10:21;0.70;;;0.70;;
673;SDS011;319;48.764;9.174;2022-09-09T14:12:48;0.80;;;0.80;;
673;SDS011;319;48.764;9.174;2022-09-09T14:15:14;0.70;;;0.70;;
673;SDS011;319;48.764;9.174;2022-09-09T14:17:41;0.77;;;0.77;;
673;SDS011;319;48.764;9.174;2022-09-09T14:20:09;0.80;;;0.80;;
673;SDS011;319;48.764;9.174;2022-09-09T14:22:40;0.70;;;0.70;;
673;SDS011;319;48.764;9.174;2022-09-09T14:25:07;0.70;;;0.70;;
673;SDS011;319;48.764;9.174;2022-09-09T14:27:36;0.73;;;0.73;;
673;SDS011;319;48.764;9.174;2022-09-09T14:30:04;0.70;;;0.70;;
673;SDS011;319;48.764;9.174;2022-09-09T14:32:32;0.80;;;0.80;;
673;SDS011;319;48.764;9.174;2022-09-09T14:34:59;0.80;;;0.80;;
673;SDS011;319;48.764;9.174;2022-09-09T14:37:26;0.70;;;0.70;;
673;SDS011;319;48.764;9.174;2022-09-09T14:39:56;0.80;;;0.80;;
673;SDS011;319;48.764;9.174;2022-09-09T14:42:23;0.80;;;0.80;;
673;SDS011;319;48.764;9.174;2022-09-09T14:44:52;0.80;;;0.80;;
673;SDS011;319;48.764;9.174;2022-09-09T14:47:19;0.80;;;0.80;;
673;SDS011;319;48.764;9.174;2022-09-09T14:49:46;0.80;;;0.80;;
673;SDS011;319;48.764;9.174;2022-09-09T14:52:14;0.80;;;0.80;;
673;SDS011;319;48.764;9.174;2022-09-09T14:54:42;0.80;;;0.80;;
673;SDS011;319;48.764;9.174;2022-09-09T14:57:09;0.80;;;0.80;;
673;SDS011;319;48.764;9.174;2022-09-09T14:59:36;0.70;;;0.70;;
673;SDS011;319;48.764;9.174;2022-09-09T15:02:05;0.77;;;0.77;;
673;SDS011;319;48.764;9.174;2022-09-09T15:04:31;0.80;;;0.80;;
673;SDS011;319;48.764;9.174;2022-09-09T15:06:59;0.80;;;0.80;;
673;SDS011;319;48.764;9.174;2022-09-09T15:09:25;0.80;;;0.80;;
673;SDS011;319;48.764;9.174;2022-09-09T15:11:52;0.80;;;0.80;;
673;SDS011;319;48.764;9.174;2022-09-09T15:14:20;0.90;;;0.90;;
673;SDS011;319;48.764;9.174;2022-09-09T15:16:47;0.83;;;0.83;;
673;SDS011;319;48.764;9.174;2022-09-09T15:19:15;0.70;;;0.70;;
673;SDS011;319;48.764;9.174;2022-09-09T15:21:42;0.80;;;0.80;;
673;SDS011;319;48.764;9.174;2022-09-09T15:24:09;0.70;;;0.70;;
673;SDS011;319;48.764;9.174;2022-09-09T15:26:36;0.80;;;0.80;;
673;SDS011;319;48.764;9.174;2022-09-09T15:29:04;0.80;;;0.80;;
673;SDS011;319;48.764;9.174;2022-09-09T15:31:32;0.80;;;0.80;;
673;SDS011;319;48.764;9.174;2022-09-09T15:34:00;0.80;;;0.80;;
673;SDS011;319;48.764;9.174;2022-09-09T15:36:29;0.80;;;0.80;;
673;SDS011;319;48.764;9.174;2022-09-09T15:38:58;0.80;;;0.80;;
673;SDS011;319;48.764;9.174;2022-09-09T15:41:26;0.80;;;0.80;;
673;SDS011;319;48.764;9.174;2022-09-09T15:43:54;0.80;;;0.80;;
673;SDS011;319;48.764;9.174;2022-09-09T15:46:23;0.90;;;0.90;;
673;SDS011;319;48.764;9.174;2022-09-09T15:48:53;0.80;;;0.80;;
673;SDS011;319;48.764;9.174;2022-09-09T15:51:21;0.80;;;0.80;;
673;SDS011;319;48.764;9.174;2022-09-09T15:53:54;0.90;;;0.90;;
673;SDS011;319;48.764;9.174;2022-09-09T15:56:22;0.80;;;0.80;;
673;SDS011;319;48.764;9.174;2022-09-09T15:58:56;0.90;;;0.90;;
673;SDS011;319;48.764;9.174;2022-09-09T16:01:25;0.90;;;0.90;;
673;SDS011;319;48.764;9.174;2022-09-09T16:03:52;0.90;;;0.90;;
673;SDS011;319;48.764;9.174;2022-09-09T16:06:20;0.80;;;0.80;;
673;SDS011;319;48.764;9.174;2022-09-09T16:08:49;0.80;;;0.80;;
673;SDS011;319;48.764;9.174;2022-09-09T16:11:20;1.00;;;1.00;;
673;SDS011;319;48.764;9.174;2022-09-09T16:13:48;0.80;;;0.80;;
673;SDS011;319;48.764;9.174;2022-09-09T16:16:17;0.80;;;0.80;;
673;SDS011;319;48.764;9.174;2022-09-09T16:18:48;0.80;;;0.80;;